sensor_id;sensor_type;location;lat;lon;timestamp;temperature;humidity
56428;DHT22;42331;53.578;9.760;2022-08-01T00:00:50;17.80;99.90
56428;DHT22;42331;53.578;9.760;2022-08-01T00:03:20;17.80;99.90
56428;DHT22;42331;53.578;9.760;2022-08-01T00:05:51;17.80;99.90
56428;DHT22;42331;53.578;9.760;2022-08-01T00:08:22;17.80;99.90
56428;DHT22;42331;53.578;9.760;2022-08-01T00:10:53;17.80;99.90
56428;DHT22;42331;53.578;9.760;2022-08-01T00:13:23;17.80;99.90
56428;DHT22;42331;53.578;9.760;2022-08-01T00:15:54;17.80;99.90
56428;DHT22;42331;53.578;9.760;2022-08-01T00:18:25;17.80;99.90
56428;DHT22;42331;53.578;9.760;2022-08-01T00:20:55;17.80;99.90
56428;DHT22;42331;53.578;9.760;2022-08-01T00:23:26;17.80;99.90
56428;DHT22;42331;53.578;9.760;2022-08-01T00:25:57;17.80;99.90
56428;DHT22;42331;53.578;9.760;2022-08-01T00:28:28;17.80;99.90
56428;DHT22;42331;53.578;9.760;2022-08-01T00:30:59;17.80;99.90
56428;DHT22;42331;53.578;9.760;2022-08-01T00:33:29;17.80;99.90
56428;DHT22;42331;53.578;9.760;2022-08-01T00:36:00;17.90;99.90
56428;DHT22;42331;53.578;9.760;2022-08-01T00:38:31;17.80;99.90
56428;DHT22;42331;53.578;9.760;2022-08-01T00:41:02;17.80;99.90
56428;DHT22;42331;53.578;9.760;2022-08-01T00:43:33;17.80;99.90
56428;DHT22;42331;53.578;9.760;2022-08-01T00:46:04;17.80;99.90
56428;DHT22;42331;53.578;9.760;2022-08-01T00:48:35;17.80;99.90
56428;DHT22;42331;53.578;9.760;2022-08-01T00:51:05;17.80;99.90
56428;DHT22;42331;53.578;9.760;2022-08-01T00:53:38;17.80;99.90
56428;DHT22;42331;53.578;9.760;2022-08-01T00:56:09;17.80;99.90
56428;DHT22;42331;53.578;9.760;2022-08-01T00:58:40;17.90;99.90
56428;DHT22;42331;53.578;9.760;2022-08-01T01:01:11;17.80;99.90
56428;DHT22;42331;53.578;9.760;2022-08-01T01:03:42;17.80;99.90
56428;DHT22;42331;53.578;9.760;2022-08-01T01:06:14;17.80;99.90
56428;DHT22;42331;53.578;9.760;2022-08-01T01:12:03;17.80;99.90
56428;DHT22;42331;53.578;9.760;2022-08-01T01:17:45;17.80;99.90
56428;DHT22;42331;53.578;9.760;2022-08-01T01:20:18;17.80;99.90
56428;DHT22;42331;53.578;9.760;2022-08-01T01:34:37;17.70;99.90
56428;DHT22;42331;53.578;9.760;2022-08-01T01:37:12;17.70;99.90
56428;DHT22;42331;53.578;9.760;2022-08-01T01:39:46;17.70;99.90
56428;DHT22;42331;53.578;9.760;2022-08-01T01:42:19;17.60;99.90
56428;DHT22;42331;53.578;9.760;2022-08-01T01:44:51;17.60;99.90
56428;DHT22;42331;53.578;9.760;2022-08-01T01:47:23;17.70;99.90
56428;DHT22;42331;53.578;9.760;2022-08-01T01:49:56;17.70;99.90
56428;DHT22;42331;53.578;9.760;2022-08-01T01:52:28;17.60;99.90
56428;DHT22;42331;53.578;9.760;2022-08-01T01:54:59;17.60;99.90
56428;DHT22;42331;53.578;9.760;2022-08-01T01:57:32;17.60;99.90
56428;DHT22;42331;53.578;9.760;2022-08-01T02:00:03;17.60;99.90
56428;DHT22;42331;53.578;9.760;2022-08-01T02:02:37;17.60;99.90
56428;DHT22;42331;53.578;9.760;2022-08-01T02:05:10;17.60;99.90
56428;DHT22;42331;53.578;9.760;2022-08-01T02:07:41;17.60;99.90
56428;DHT22;42331;53.578;9.760;2022-08-01T02:10:15;17.60;99.90
56428;DHT22;42331;53.578;9.760;2022-08-01T02:12:48;17.60;99.90
56428;DHT22;42331;53.578;9.760;2022-08-01T02:15:20;17.60;99.90
56428;DHT22;42331;53.578;9.760;2022-08-01T02:17:53;17.50;99.90
56428;DHT22;42331;53.578;9.760;2022-08-01T02:20:26;17.60;99.90
56428;DHT22;42331;53.578;9.760;2022-08-01T02:23:05;17.50;99.90
56428;DHT22;42331;53.578;9.760;2022-08-01T02:25:44;17.50;99.90
56428;DHT22;42331;53.578;9.760;2022-08-01T02:28:29;17.60;99.90
56428;DHT22;42331;53.578;9.760;2022-08-01T02:31:04;17.60;99.90
56428;DHT22;42331;53.578;9.760;2022-08-01T02:33:38;17.50;99.90
56428;DHT22;42331;53.578;9.760;2022-08-01T02:36:11;17.50;99.90
56428;DHT22;42331;53.578;9.760;2022-08-01T02:38:44;17.50;99.90
56428;DHT22;42331;53.578;9.760;2022-08-01T02:41:21;17.50;99.90
56428;DHT22;42331;53.578;9.760;2022-08-01T02:43:55;17.50;99.90
56428;DHT22;42331;53.578;9.760;2022-08-01T02:46:36;17.50;99.90
56428;DHT22;42331;53.578;9.760;2022-08-01T02:49:10;17.50;99.90
56428;DHT22;42331;53.578;9.760;2022-08-01T02:51:42;17.50;99.90
56428;DHT22;42331;53.578;9.760;2022-08-01T02:54:15;17.50;99.90
56428;DHT22;42331;53.578;9.760;2022-08-01T02:56:48;17.50;99.90
56428;DHT22;42331;53.578;9.760;2022-08-01T02:59:22;17.50;99.90
56428;DHT22;42331;53.578;9.760;2022-08-01T03:01:57;17.40;99.90
56428;DHT22;42331;53.578;9.760;2022-08-01T03:04:28;17.40;99.90
56428;DHT22;42331;53.578;9.760;2022-08-01T03:07:03;17.40;99.90
56428;DHT22;42331;53.578;9.760;2022-08-01T03:09:38;17.40;99.90
56428;DHT22;42331;53.578;9.760;2022-08-01T03:12:14;17.40;99.90
56428;DHT22;42331;53.578;9.760;2022-08-01T03:14:47;17.40;99.90
56428;DHT22;42331;53.578;9.760;2022-08-01T03:17:19;17.40;99.90
56428;DHT22;42331;53.578;9.760;2022-08-01T03:19:52;17.40;99.90
56428;DHT22;42331;53.578;9.760;2022-08-01T03:22:23;17.50;99.90
56428;DHT22;42331;53.578;9.760;2022-08-01T03:24:56;17.50;99.90
56428;DHT22;42331;53.578;9.760;2022-08-01T03:27:30;17.50;99.90
56428;DHT22;42331;53.578;9.760;2022-08-01T03:30:03;17.40;99.90
56428;DHT22;42331;53.578;9.760;2022-08-01T03:32:34;17.40;99.90
56428;DHT22;42331;53.578;9.760;2022-08-01T03:35:05;17.50;99.90
56428;DHT22;42331;53.578;9.760;2022-08-01T03:37:38;17.40;99.90
56428;DHT22;42331;53.578;9.760;2022-08-01T03:40:16;17.40;99.90
56428;DHT22;42331;53.578;9.760;2022-08-01T03:42:52;17.40;99.90
56428;DHT22;42331;53.578;9.760;2022-08-01T03:45:36;17.40;99.90
56428;DHT22;42331;53.578;9.760;2022-08-01T03:48:12;17.50;99.90
56428;DHT22;42331;53.578;9.760;2022-08-01T03:50:46;17.40;99.90
56428;DHT22;42331;53.578;9.760;2022-08-01T03:53:26;17.40;99.90
56428;DHT22;42331;53.578;9.760;2022-08-01T03:56:00;17.40;99.90
56428;DHT22;42331;53.578;9.760;2022-08-01T03:58:33;17.40;99.90
56428;DHT22;42331;53.578;9.760;2022-08-01T04:01:05;17.40;99.90
56428;DHT22;42331;53.578;9.760;2022-08-01T04:03:37;17.40;99.90
56428;DHT22;42331;53.578;9.760;2022-08-01T04:06:07;17.40;99.90
56428;DHT22;42331;53.578;9.760;2022-08-01T04:08:41;17.40;99.90
56428;DHT22;42331;53.578;9.760;2022-08-01T04:11:11;17.40;99.90
56428;DHT22;42331;53.578;9.760;2022-08-01T04:13:42;17.40;99.90
56428;DHT22;42331;53.578;9.760;2022-08-01T04:16:13;17.40;99.90
56428;DHT22;42331;53.578;9.760;2022-08-01T04:18:44;17.40;99.90
56428;DHT22;42331;53.578;9.760;2022-08-01T04:21:18;17.40;99.90
56428;DHT22;42331;53.578;9.760;2022-08-01T04:23:52;17.40;99.90
56428;DHT22;42331;53.578;9.760;2022-08-01T04:26:25;17.40;99.90
56428;DHT22;42331;53.578;9.760;2022-08-01T04:28:58;17.40;99.90
56428;DHT22;42331;53.578;9.760;2022-08-01T04:31:32;17.40;99.90
56428;DHT22;42331;53.578;9.760;2022-08-01T04:34:05;17.40;99.90
56428;DHT22;42331;53.578;9.760;2022-08-01T04:36:36;17.40;99.90
56428;DHT22;42331;53.578;9.760;2022-08-01T04:39:08;17.30;99.90
56428;DHT22;42331;53.578;9.760;2022-08-01T04:41:40;17.30;99.90
56428;DHT22;42331;53.578;9.760;2022-08-01T04:44:12;17.30;99.90
56428;DHT22;42331;53.578;9.760;2022-08-01T04:46:43;17.30;99.90
56428;DHT22;42331;53.578;9.760;2022-08-01T04:49:15;17.40;99.90
56428;DHT22;42331;53.578;9.760;2022-08-01T04:51:50;17.30;99.90
56428;DHT22;42331;53.578;9.760;2022-08-01T04:54:21;17.40;99.90
56428;DHT22;42331;53.578;9.760;2022-08-01T04:56:53;17.30;99.90
56428;DHT22;42331;53.578;9.760;2022-08-01T04:59:26;17.30;99.90
56428;DHT22;42331;53.578;9.760;2022-08-01T05:02:15;17.30;99.90
56428;DHT22;42331;53.578;9.760;2022-08-01T05:04:46;17.30;99.90
56428;DHT22;42331;53.578;9.760;2022-08-01T05:07:17;17.40;99.90
56428;DHT22;42331;53.578;9.760;2022-08-01T05:09:47;17.40;99.90
56428;DHT22;42331;53.578;9.760;2022-08-01T05:12:18;17.30;99.90
56428;DHT22;42331;53.578;9.760;2022-08-01T05:14:49;17.30;99.90
56428;DHT22;42331;53.578;9.760;2022-08-01T05:17:19;17.30;99.90
56428;DHT22;42331;53.578;9.760;2022-08-01T05:19:51;17.30;99.90
56428;DHT22;42331;53.578;9.760;2022-08-01T05:22:22;17.30;99.90
56428;DHT22;42331;53.578;9.760;2022-08-01T05:24:52;17.30;99.90
56428;DHT22;42331;53.578;9.760;2022-08-01T05:27:23;17.30;99.90
56428;DHT22;42331;53.578;9.760;2022-08-01T05:29:54;17.30;99.90
56428;DHT22;42331;53.578;9.760;2022-08-01T05:32:24;17.30;99.90
56428;DHT22;42331;53.578;9.760;2022-08-01T05:34:55;17.30;99.90
56428;DHT22;42331;53.578;9.760;2022-08-01T05:37:26;17.30;99.90
56428;DHT22;42331;53.578;9.760;2022-08-01T05:39:56;17.30;99.90
56428;DHT22;42331;53.578;9.760;2022-08-01T05:42:27;17.30;99.90
56428;DHT22;42331;53.578;9.760;2022-08-01T05:44:58;17.20;99.90
56428;DHT22;42331;53.578;9.760;2022-08-01T05:47:29;17.30;99.90
56428;DHT22;42331;53.578;9.760;2022-08-01T05:50:00;17.30;99.90
56428;DHT22;42331;53.578;9.760;2022-08-01T05:52:30;17.30;99.90
56428;DHT22;42331;53.578;9.760;2022-08-01T05:55:01;17.30;99.90
56428;DHT22;42331;53.578;9.760;2022-08-01T05:57:32;17.20;99.90
56428;DHT22;42331;53.578;9.760;2022-08-01T06:00:03;17.20;99.90
56428;DHT22;42331;53.578;9.760;2022-08-01T15:13:09;19.20;99.90
56428;DHT22;42331;53.578;9.760;2022-08-01T15:15:40;19.20;99.90
56428;DHT22;42331;53.578;9.760;2022-08-01T15:18:10;19.20;99.90
56428;DHT22;42331;53.578;9.760;2022-08-01T15:20:41;19.20;99.90
56428;DHT22;42331;53.578;9.760;2022-08-01T15:23:12;19.10;99.90
56428;DHT22;42331;53.578;9.760;2022-08-01T15:25:44;19.10;99.90
56428;DHT22;42331;53.578;9.760;2022-08-01T15:28:14;19.20;99.90
56428;DHT22;42331;53.578;9.760;2022-08-01T15:30:45;19.20;99.90
56428;DHT22;42331;53.578;9.760;2022-08-01T15:33:16;19.30;99.90
56428;DHT22;42331;53.578;9.760;2022-08-01T15:35:47;19.50;99.90
56428;DHT22;42331;53.578;9.760;2022-08-01T15:38:18;19.40;99.90
56428;DHT22;42331;53.578;9.760;2022-08-01T15:40:49;19.20;99.90
56428;DHT22;42331;53.578;9.760;2022-08-01T15:43:20;19.10;99.90
56428;DHT22;42331;53.578;9.760;2022-08-01T15:45:51;19.10;99.90
56428;DHT22;42331;53.578;9.760;2022-08-01T15:48:21;18.80;99.90
56428;DHT22;42331;53.578;9.760;2022-08-01T15:50:52;18.80;99.90
56428;DHT22;42331;53.578;9.760;2022-08-01T15:53:23;18.90;99.90
56428;DHT22;42331;53.578;9.760;2022-08-01T15:55:53;18.90;99.90
56428;DHT22;42331;53.578;9.760;2022-08-01T15:58:24;18.90;99.90
56428;DHT22;42331;53.578;9.760;2022-08-01T16:00:55;18.90;99.90
56428;DHT22;42331;53.578;9.760;2022-08-01T16:03:26;19.00;99.90
56428;DHT22;42331;53.578;9.760;2022-08-01T16:05:58;19.00;99.90
56428;DHT22;42331;53.578;9.760;2022-08-01T16:08:28;19.00;99.90
56428;DHT22;42331;53.578;9.760;2022-08-01T16:10:59;19.00;99.90
56428;DHT22;42331;53.578;9.760;2022-08-01T16:13:30;19.00;99.90
56428;DHT22;42331;53.578;9.760;2022-08-01T16:16:01;19.10;99.90
56428;DHT22;42331;53.578;9.760;2022-08-01T16:18:34;19.00;99.90
56428;DHT22;42331;53.578;9.760;2022-08-01T16:21:05;18.90;99.90
56428;DHT22;42331;53.578;9.760;2022-08-01T16:23:38;18.80;99.90
56428;DHT22;42331;53.578;9.760;2022-08-01T16:26:09;18.80;99.90
56428;DHT22;42331;53.578;9.760;2022-08-01T16:28:40;18.60;99.90
56428;DHT22;42331;53.578;9.760;2022-08-01T16:31:11;18.60;99.90
56428;DHT22;42331;53.578;9.760;2022-08-01T16:33:42;18.50;99.90
56428;DHT22;42331;53.578;9.760;2022-08-01T16:36:13;18.40;99.90
56428;DHT22;42331;53.578;9.760;2022-08-01T16:38:44;18.40;99.90
56428;DHT22;42331;53.578;9.760;2022-08-01T16:41:15;18.50;99.90
56428;DHT22;42331;53.578;9.760;2022-08-01T16:43:47;18.50;99.90
56428;DHT22;42331;53.578;9.760;2022-08-01T16:46:17;18.50;99.90
56428;DHT22;42331;53.578;9.760;2022-08-01T16:48:49;18.40;99.90
56428;DHT22;42331;53.578;9.760;2022-08-01T16:51:20;18.40;99.90
56428;DHT22;42331;53.578;9.760;2022-08-01T16:53:50;18.50;99.90
56428;DHT22;42331;53.578;9.760;2022-08-01T16:56:21;18.50;99.90
56428;DHT22;42331;53.578;9.760;2022-08-01T16:58:52;18.40;99.90
56428;DHT22;42331;53.578;9.760;2022-08-01T17:01:22;18.40;99.90
56428;DHT22;42331;53.578;9.760;2022-08-01T17:03:54;18.30;99.90
56428;DHT22;42331;53.578;9.760;2022-08-01T17:06:25;18.30;99.90
56428;DHT22;42331;53.578;9.760;2022-08-01T17:08:56;18.20;99.90
56428;DHT22;42331;53.578;9.760;2022-08-01T17:11:26;18.20;99.90
56428;DHT22;42331;53.578;9.760;2022-08-01T17:13:57;18.10;99.90
56428;DHT22;42331;53.578;9.760;2022-08-01T17:16:28;18.20;99.90
56428;DHT22;42331;53.578;9.760;2022-08-01T17:18:59;18.20;99.90
56428;DHT22;42331;53.578;9.760;2022-08-01T17:21:31;18.20;99.90
56428;DHT22;42331;53.578;9.760;2022-08-01T17:24:03;18.10;99.90
56428;DHT22;42331;53.578;9.760;2022-08-01T17:29:05;18.10;99.90
56428;DHT22;42331;53.578;9.760;2022-08-01T17:31:36;18.10;99.90
56428;DHT22;42331;53.578;9.760;2022-08-01T17:34:06;18.00;99.90
56428;DHT22;42331;53.578;9.760;2022-08-01T17:36:37;18.00;99.90
56428;DHT22;42331;53.578;9.760;2022-08-01T17:39:08;17.90;99.90
56428;DHT22;42331;53.578;9.760;2022-08-01T17:41:39;17.90;99.90
56428;DHT22;42331;53.578;9.760;2022-08-01T17:44:10;17.90;99.90
56428;DHT22;42331;53.578;9.760;2022-08-01T17:46:41;17.90;99.90
56428;DHT22;42331;53.578;9.760;2022-08-01T17:49:11;17.80;99.90
56428;DHT22;42331;53.578;9.760;2022-08-01T17:51:42;17.80;99.90
56428;DHT22;42331;53.578;9.760;2022-08-01T17:54:13;17.80;99.90
56428;DHT22;42331;53.578;9.760;2022-08-01T17:56:43;17.80;99.90
56428;DHT22;42331;53.578;9.760;2022-08-01T17:59:14;17.80;99.90
56428;DHT22;42331;53.578;9.760;2022-08-01T18:01:45;17.70;99.90
56428;DHT22;42331;53.578;9.760;2022-08-01T18:04:16;17.80;99.90
56428;DHT22;42331;53.578;9.760;2022-08-01T18:06:46;17.70;99.90
56428;DHT22;42331;53.578;9.760;2022-08-01T18:09:17;17.70;99.90
56428;DHT22;42331;53.578;9.760;2022-08-01T18:11:48;17.70;99.90
56428;DHT22;42331;53.578;9.760;2022-08-01T18:14:19;17.60;99.90
56428;DHT22;42331;53.578;9.760;2022-08-01T18:16:51;17.60;99.90
56428;DHT22;42331;53.578;9.760;2022-08-01T18:19:22;17.60;99.90
56428;DHT22;42331;53.578;9.760;2022-08-01T18:21:52;17.50;99.90
56428;DHT22;42331;53.578;9.760;2022-08-01T18:24:23;17.50;99.90
56428;DHT22;42331;53.578;9.760;2022-08-01T18:26:54;17.30;99.90
56428;DHT22;42331;53.578;9.760;2022-08-01T18:29:30;17.30;99.90
56428;DHT22;42331;53.578;9.760;2022-08-01T18:32:00;17.20;99.90
56428;DHT22;42331;53.578;9.760;2022-08-01T18:34:33;17.20;99.90
56428;DHT22;42331;53.578;9.760;2022-08-01T18:37:04;17.10;99.90
56428;DHT22;42331;53.578;9.760;2022-08-01T18:39:35;17.00;99.90
56428;DHT22;42331;53.578;9.760;2022-08-01T18:42:06;16.90;99.90
56428;DHT22;42331;53.578;9.760;2022-08-01T18:44:36;16.90;99.90
56428;DHT22;42331;53.578;9.760;2022-08-01T18:47:07;16.90;99.90
56428;DHT22;42331;53.578;9.760;2022-08-01T18:49:38;16.80;99.90
56428;DHT22;42331;53.578;9.760;2022-08-01T18:52:09;16.80;99.90
56428;DHT22;42331;53.578;9.760;2022-08-01T18:54:40;16.80;99.90
56428;DHT22;42331;53.578;9.760;2022-08-01T18:57:10;16.70;99.90
56428;DHT22;42331;53.578;9.760;2022-08-01T18:59:41;16.70;99.90
56428;DHT22;42331;53.578;9.760;2022-08-01T19:02:12;16.60;99.90
56428;DHT22;42331;53.578;9.760;2022-08-01T19:04:43;16.60;99.90
56428;DHT22;42331;53.578;9.760;2022-08-01T19:07:14;16.60;99.90
56428;DHT22;42331;53.578;9.760;2022-08-01T19:09:44;16.50;99.90
56428;DHT22;42331;53.578;9.760;2022-08-01T19:12:15;16.50;99.90
56428;DHT22;42331;53.578;9.760;2022-08-01T19:14:46;16.40;99.90
56428;DHT22;42331;53.578;9.760;2022-08-01T19:17:16;16.30;99.90
56428;DHT22;42331;53.578;9.760;2022-08-01T19:19:53;16.30;99.90
56428;DHT22;42331;53.578;9.760;2022-08-01T19:22:25;16.20;99.90
56428;DHT22;42331;53.578;9.760;2022-08-01T19:24:55;16.00;99.90
56428;DHT22;42331;53.578;9.760;2022-08-01T19:27:28;16.00;99.90
56428;DHT22;42331;53.578;9.760;2022-08-01T19:30:01;16.00;99.90
56428;DHT22;42331;53.578;9.760;2022-08-01T19:32:33;16.00;99.90
56428;DHT22;42331;53.578;9.760;2022-08-01T19:35:08;15.90;99.90
56428;DHT22;42331;53.578;9.760;2022-08-01T19:37:41;15.90;99.90
56428;DHT22;42331;53.578;9.760;2022-08-01T19:40:17;15.80;99.90
56428;DHT22;42331;53.578;9.760;2022-08-01T19:42:48;15.80;99.90
56428;DHT22;42331;53.578;9.760;2022-08-01T19:45:19;15.80;99.90
56428;DHT22;42331;53.578;9.760;2022-08-01T19:47:50;15.70;99.90
56428;DHT22;42331;53.578;9.760;2022-08-01T19:50:21;15.60;99.90
56428;DHT22;42331;53.578;9.760;2022-08-01T19:52:52;15.60;99.90
56428;DHT22;42331;53.578;9.760;2022-08-01T19:55:26;15.50;99.90
56428;DHT22;42331;53.578;9.760;2022-08-01T19:57:57;15.40;99.90
56428;DHT22;42331;53.578;9.760;2022-08-01T20:00:28;15.30;99.90
56428;DHT22;42331;53.578;9.760;2022-08-01T20:03:00;15.30;99.90
56428;DHT22;42331;53.578;9.760;2022-08-01T20:05:32;15.30;99.90
56428;DHT22;42331;53.578;9.760;2022-08-01T20:08:05;15.30;99.90
56428;DHT22;42331;53.578;9.760;2022-08-01T20:10:36;15.20;99.90
56428;DHT22;42331;53.578;9.760;2022-08-01T20:13:07;15.10;99.90
56428;DHT22;42331;53.578;9.760;2022-08-01T20:15:41;15.00;99.90
56428;DHT22;42331;53.578;9.760;2022-08-01T20:18:12;15.00;99.90
56428;DHT22;42331;53.578;9.760;2022-08-01T20:20:45;14.90;99.90
56428;DHT22;42331;53.578;9.760;2022-08-01T20:23:18;14.80;99.90
56428;DHT22;42331;53.578;9.760;2022-08-01T20:25:51;14.70;99.90
56428;DHT22;42331;53.578;9.760;2022-08-01T20:28:25;14.70;99.90
56428;DHT22;42331;53.578;9.760;2022-08-01T20:30:59;14.60;99.90
56428;DHT22;42331;53.578;9.760;2022-08-01T20:33:30;14.50;99.90
56428;DHT22;42331;53.578;9.760;2022-08-01T20:36:03;14.40;99.90
56428;DHT22;42331;53.578;9.760;2022-08-01T20:38:34;14.30;99.90
56428;DHT22;42331;53.578;9.760;2022-08-01T20:41:08;14.30;99.90
56428;DHT22;42331;53.578;9.760;2022-08-01T20:43:39;14.20;99.90
56428;DHT22;42331;53.578;9.760;2022-08-01T20:46:11;14.20;99.90
56428;DHT22;42331;53.578;9.760;2022-08-01T20:48:42;14.20;99.90
56428;DHT22;42331;53.578;9.760;2022-08-01T20:51:16;14.10;99.90
56428;DHT22;42331;53.578;9.760;2022-08-01T20:53:47;14.00;99.90
56428;DHT22;42331;53.578;9.760;2022-08-01T20:57:00;14.00;99.90
56428;DHT22;42331;53.578;9.760;2022-08-01T20:59:57;14.00;99.90
56428;DHT22;42331;53.578;9.760;2022-08-01T21:05:42;13.90;99.90
56428;DHT22;42331;53.578;9.760;2022-08-01T21:08:23;13.80;99.90
56428;DHT22;42331;53.578;9.760;2022-08-01T21:11:01;13.80;99.90
56428;DHT22;42331;53.578;9.760;2022-08-01T21:13:40;13.70;99.90
56428;DHT22;42331;53.578;9.760;2022-08-01T21:16:12;13.60;99.90
56428;DHT22;42331;53.578;9.760;2022-08-01T21:18:47;13.50;99.90
56428;DHT22;42331;53.578;9.760;2022-08-01T21:21:21;13.50;99.90
56428;DHT22;42331;53.578;9.760;2022-08-01T21:24:16;13.50;99.90
56428;DHT22;42331;53.578;9.760;2022-08-01T21:26:48;13.50;99.90
56428;DHT22;42331;53.578;9.760;2022-08-01T21:29:19;13.50;99.90
56428;DHT22;42331;53.578;9.760;2022-08-01T21:31:52;13.50;99.90
56428;DHT22;42331;53.578;9.760;2022-08-01T21:34:46;13.40;99.90
56428;DHT22;42331;53.578;9.760;2022-08-01T21:37:17;13.40;99.90
56428;DHT22;42331;53.578;9.760;2022-08-01T21:39:48;13.40;99.90
56428;DHT22;42331;53.578;9.760;2022-08-01T21:42:20;13.40;99.90
56428;DHT22;42331;53.578;9.760;2022-08-01T21:44:54;13.30;99.90
56428;DHT22;42331;53.578;9.760;2022-08-01T21:47:27;13.30;99.90
56428;DHT22;42331;53.578;9.760;2022-08-01T21:50:02;13.30;99.90
56428;DHT22;42331;53.578;9.760;2022-08-01T21:52:49;13.20;99.90
56428;DHT22;42331;53.578;9.760;2022-08-01T21:55:39;13.20;99.90
56428;DHT22;42331;53.578;9.760;2022-08-01T21:58:22;13.20;99.90
56428;DHT22;42331;53.578;9.760;2022-08-01T22:03:46;13.00;99.90
56428;DHT22;42331;53.578;9.760;2022-08-01T22:06:19;13.00;99.90
56428;DHT22;42331;53.578;9.760;2022-08-01T22:08:55;12.90;99.90
56428;DHT22;42331;53.578;9.760;2022-08-01T22:11:29;12.90;99.90
56428;DHT22;42331;53.578;9.760;2022-08-01T22:14:02;12.90;99.90
56428;DHT22;42331;53.578;9.760;2022-08-01T22:16:36;12.90;99.90
56428;DHT22;42331;53.578;9.760;2022-08-01T22:19:10;12.90;99.90
56428;DHT22;42331;53.578;9.760;2022-08-01T22:21:42;12.90;99.90
56428;DHT22;42331;53.578;9.760;2022-08-01T22:24:13;12.80;99.90
56428;DHT22;42331;53.578;9.760;2022-08-01T22:26:45;12.80;99.90
56428;DHT22;42331;53.578;9.760;2022-08-01T22:29:18;12.70;99.90
56428;DHT22;42331;53.578;9.760;2022-08-01T22:31:50;12.80;99.90
56428;DHT22;42331;53.578;9.760;2022-08-01T22:34:26;12.70;99.90
56428;DHT22;42331;53.578;9.760;2022-08-01T22:36:56;12.70;99.90
56428;DHT22;42331;53.578;9.760;2022-08-01T22:39:27;12.60;99.90
56428;DHT22;42331;53.578;9.760;2022-08-01T22:42:00;12.70;99.90
56428;DHT22;42331;53.578;9.760;2022-08-01T22:44:47;12.60;99.90
56428;DHT22;42331;53.578;9.760;2022-08-01T22:47:37;12.60;99.90
56428;DHT22;42331;53.578;9.760;2022-08-01T22:50:18;12.60;99.90
56428;DHT22;42331;53.578;9.760;2022-08-01T22:55:44;12.50;99.90
56428;DHT22;42331;53.578;9.760;2022-08-01T22:58:18;12.50;99.90
56428;DHT22;42331;53.578;9.760;2022-08-01T23:00:58;12.40;99.90
56428;DHT22;42331;53.578;9.760;2022-08-01T23:03:42;12.40;99.90
56428;DHT22;42331;53.578;9.760;2022-08-01T23:08:47;12.40;99.90
56428;DHT22;42331;53.578;9.760;2022-08-01T23:11:19;12.40;99.90
56428;DHT22;42331;53.578;9.760;2022-08-01T23:13:50;12.30;99.90
56428;DHT22;42331;53.578;9.760;2022-08-01T23:16:21;12.30;99.90
56428;DHT22;42331;53.578;9.760;2022-08-01T23:18:53;12.20;99.90
56428;DHT22;42331;53.578;9.760;2022-08-01T23:21:26;12.20;99.90
56428;DHT22;42331;53.578;9.760;2022-08-01T23:23:57;12.20;99.90
56428;DHT22;42331;53.578;9.760;2022-08-01T23:26:29;12.20;99.90
56428;DHT22;42331;53.578;9.760;2022-08-01T23:29:01;12.20;99.90
56428;DHT22;42331;53.578;9.760;2022-08-01T23:31:32;12.20;99.90
56428;DHT22;42331;53.578;9.760;2022-08-01T23:34:03;12.10;99.90
56428;DHT22;42331;53.578;9.760;2022-08-01T23:36:34;12.10;99.90
56428;DHT22;42331;53.578;9.760;2022-08-01T23:39:05;12.10;99.90
56428;DHT22;42331;53.578;9.760;2022-08-01T23:41:36;12.10;99.90
56428;DHT22;42331;53.578;9.760;2022-08-01T23:44:07;12.10;99.90
56428;DHT22;42331;53.578;9.760;2022-08-01T23:46:39;12.00;99.90
56428;DHT22;42331;53.578;9.760;2022-08-01T23:49:10;12.00;99.90
56428;DHT22;42331;53.578;9.760;2022-08-01T23:51:40;12.00;99.90
56428;DHT22;42331;53.578;9.760;2022-08-01T23:54:11;12.00;99.90
56428;DHT22;42331;53.578;9.760;2022-08-01T23:56:42;11.90;99.90
56428;DHT22;42331;53.578;9.760;2022-08-01T23:59:13;11.90;99.90
